Time;durP1;ratioP1;P1;durP2;ratioP2;P2;SDS_P1;SDS_P2;PMS_P1;PMS_P2;Temp;Humidity;BMP_temperature;BMP_pressure;BME280_temperature;BME280_humidity;BME280_pressure;Samples;Min_cycle;Max_cycle;Signal;HPM_P1;HPM_P2
2023/09/30 00:02:41;;;;;;;8.50;5.53;;;;;;;;;;10139076;28;20056;-85
2023/09/30 00:07:36;;;;;;;8.45;5.45;;;;;;;;;;10144032;28;20127;-86
2023/09/30 00:12:31;;;;;;;10.10;5.88;;;;;;;;;;10145099;28;20060;-85
2023/09/30 00:17:25;;;;;;;10.05;6.88;;;;;;;;;;10144276;28;20056;-86
2023/09/30 00:22:19;;;;;;;12.45;5.70;;;;;;;;;;10143867;28;20083;-85
2023/09/30 00:27:13;;;;;;;9.93;6.00;;;;;;;;;;10144196;28;20238;-85
2023/09/30 00:32:07;;;;;;;8.98;6.07;;;;;;;;;;10110291;28;20053;-86
2023/09/30 00:37:01;;;;;;;7.13;5.10;;;;;;;;;;10146106;28;20064;-85
2023/09/30 00:41:56;;;;;;;7.20;6.10;;;;;;;;;;10131181;28;20155;-85
2023/09/30 00:46:51;;;;;;;6.93;5.45;;;;;;;;;;10144255;28;20131;-87
2023/09/30 00:51:49;;;;;;;7.70;5.35;;;;;;;;;;10144343;28;20048;-85
2023/09/30 00:56:46;;;;;;;15.77;5.97;;;;;;;;;;10141195;28;20083;-86
2023/09/30 01:01:39;;;;;;;8.15;5.80;;;;;;;;;;10143942;28;20076;-85
2023/09/30 01:06:33;;;;;;;12.20;5.97;;;;;;;;;;10125214;28;20052;-86
2023/09/30 01:11:26;;;;;;;7.05;5.70;;;;;;;;;;10144148;28;20394;-86
2023/09/30 01:16:19;;;;;;;8.43;5.82;;;;;;;;;;10130294;28;20052;-86
2023/09/30 01:21:15;;;;;;;7.43;5.43;;;;;;;;;;10125882;28;20183;-86
2023/09/30 01:26:12;;;;;;;10.23;5.65;;;;;;;;;;10130377;28;20055;-86
2023/09/30 01:31:06;;;;;;;7.97;6.70;;;;;;;;;;10115036;28;20495;-86
2023/09/30 01:36:00;;;;;;;9.18;5.78;;;;;;;;;;10087404;28;20063;-86
2023/09/30 01:40:54;;;;;;;6.05;5.28;;;;;;;;;;10110442;28;20112;-86
2023/09/30 01:45:52;;;;;;;10.95;5.70;;;;;;;;;;10105933;28;20139;-85
2023/09/30 01:50:47;;;;;;;9.23;5.70;;;;;;;;;;10106374;28;20041;-86
2023/09/30 01:55:41;;;;;;;7.00;5.40;;;;;;;;;;10111743;28;20492;-86
2023/09/30 02:00:35;;;;;;;15.68;6.13;;;;;;;;;;10111847;28;20068;-86
2023/09/30 02:05:28;;;;;;;7.40;5.88;;;;;;;;;;10112437;28;20086;-85
2023/09/30 02:10:23;;;;;;;10.25;5.40;;;;;;;;;;10112685;28;20060;-85
2023/09/30 02:15:17;;;;;;;8.25;5.97;;;;;;;;;;10092684;28;20055;-85
2023/09/30 02:20:15;;;;;;;6.03;5.32;;;;;;;;;;10098528;28;20052;-85
2023/09/30 02:25:10;;;;;;;10.20;5.80;;;;;;;;;;10112285;28;20041;-85
2023/09/30 02:30:05;;;;;;;7.85;5.68;;;;;;;;;;10111653;28;20053;-86
2023/09/30 02:34:59;;;;;;;7.70;5.72;;;;;;;;;;10116717;28;20048;-85
2023/09/30 02:39:55;;;;;;;7.30;5.10;;;;;;;;;;10092566;28;20087;-86
2023/09/30 02:44:50;;;;;;;5.85;5.20;;;;;;;;;;10100728;28;20222;-85
2023/09/30 02:49:43;;;;;;;10.93;5.88;;;;;;;;;;10110306;28;20067;-85
2023/09/30 02:54:38;;;;;;;8.57;6.05;;;;;;;;;;10110143;28;21129;-85
2023/09/30 02:59:32;;;;;;;5.88;5.03;;;;;;;;;;10109758;28;20072;-85
2023/09/30 03:04:28;;;;;;;9.13;5.68;;;;;;;;;;10097047;28;20045;-85
2023/09/30 03:09:21;;;;;;;5.65;5.03;;;;;;;;;;10110520;28;20110;-86
2023/09/30 03:14:14;;;;;;;11.48;6.18;;;;;;;;;;10110582;28;20062;-86
2023/09/30 03:19:08;;;;;;;10.50;5.72;;;;;;;;;;10109963;28;20059;-85
2023/09/30 03:24:04;;;;;;;10.73;4.57;;;;;;;;;;10109523;28;20495;-85
2023/09/30 03:29:01;;;;;;;10.15;5.13;;;;;;;;;;10109584;28;20408;-86
2023/09/30 03:33:55;;;;;;;7.43;5.55;;;;;;;;;;10108592;28;20045;-85
2023/09/30 03:38:52;;;;;;;8.68;6.65;;;;;;;;;;10108026;28;20057;-85
2023/09/30 03:43:49;;;;;;;6.35;5.75;;;;;;;;;;10111172;28;20049;-86
2023/09/30 03:48:44;;;;;;;8.20;5.93;;;;;;;;;;10108623;28;20059;-86
2023/09/30 03:53:38;;;;;;;12.50;5.88;;;;;;;;;;10109003;28;20107;-85
2023/09/30 03:58:33;;;;;;;11.48;6.10;;;;;;;;;;10109102;28;21146;-85
2023/09/30 04:03:27;;;;;;;7.45;5.80;;;;;;;;;;10111512;28;20428;-86
2023/09/30 04:08:22;;;;;;;8.98;6.50;;;;;;;;;;10109160;28;20508;-86
2023/09/30 04:13:16;;;;;;;9.38;6.45;;;;;;;;;;10107806;28;20136;-86
2023/09/30 04:18:11;;;;;;;11.45;7.60;;;;;;;;;;10108230;28;20078;-85
2023/09/30 04:23:05;;;;;;;7.93;7.13;;;;;;;;;;10121346;28;21193;-86
2023/09/30 04:28:01;;;;;;;8.65;7.72;;;;;;;;;;10113094;28;20049;-86
2023/09/30 04:32:56;;;;;;;8.65;7.78;;;;;;;;;;10122364;28;20053;-86
2023/09/30 04:37:52;;;;;;;10.95;7.30;;;;;;;;;;10109665;28;20045;-86
2023/09/30 04:42:47;;;;;;;10.95;7.28;;;;;;;;;;10114169;28;20060;-86
2023/09/30 04:47:41;;;;;;;12.20;8.20;;;;;;;;;;10118249;28;20049;-85
2023/09/30 04:52:36;;;;;;;9.30;8.02;;;;;;;;;;10108823;28;20050;-85
2023/09/30 04:57:30;;;;;;;10.80;8.20;;;;;;;;;;10107087;28;20090;-85
2023/09/30 05:02:24;;;;;;;11.23;7.75;;;;;;;;;;10108649;28;20526;-85
2023/09/30 05:07:19;;;;;;;11.52;7.70;;;;;;;;;;10111375;28;20041;-85
2023/09/30 05:12:13;;;;;;;10.98;6.97;;;;;;;;;;10113058;28;20041;-86
2023/09/30 05:17:08;;;;;;;10.05;6.50;;;;;;;;;;10120173;28;20065;-85
2023/09/30 05:22:02;;;;;;;9.13;6.80;;;;;;;;;;10113499;28;20451;-85
2023/09/30 05:26:56;;;;;;;9.23;6.68;;;;;;;;;;10125081;28;20440;-85
2023/09/30 05:31:50;;;;;;;13.20;9.27;;;;;;;;;;10127027;28;20035;-86
2023/09/30 05:36:44;;;;;;;9.35;7.55;;;;;;;;;;10119800;28;20049;-86
2023/09/30 05:41:39;;;;;;;10.48;8.50;;;;;;;;;;10119257;28;20037;-84
2023/09/30 05:46:34;;;;;;;13.55;7.78;;;;;;;;;;10131207;28;20526;-85
2023/09/30 05:51:31;;;;;;;9.07;8.17;;;;;;;;;;10115061;28;20500;-85
2023/09/30 05:56:25;;;;;;;10.07;8.65;;;;;;;;;;10113864;28;20045;-84
2023/09/30 06:01:19;;;;;;;15.77;8.95;;;;;;;;;;10112177;28;20144;-84
2023/09/30 06:06:15;;;;;;;12.52;8.50;;;;;;;;;;10111307;28;20060;-84
2023/09/30 06:11:24;;;;;;;12.05;7.57;;;;;;;;;;10110943;28;20049;-84
2023/09/30 06:16:17;;;;;;;11.10;8.30;;;;;;;;;;10112166;28;20102;-84
2023/09/30 06:21:12;;;;;;;11.57;8.98;;;;;;;;;;10110829;28;20464;-84
2023/09/30 06:26:06;;;;;;;10.88;8.65;;;;;;;;;;10110721;28;20061;-84
2023/09/30 06:31:01;;;;;;;12.75;8.57;;;;;;;;;;10110808;28;20128;-84
2023/09/30 06:35:55;;;;;;;11.40;9.38;;;;;;;;;;10138521;28;20082;-84
2023/09/30 06:40:48;;;;;;;9.77;8.15;;;;;;;;;;10145726;28;20127;-86
2023/09/30 06:45:43;;;;;;;14.10;7.88;;;;;;;;;;10136728;28;20147;-86
2023/09/30 06:50:39;;;;;;;12.10;9.18;;;;;;;;;;10125664;28;20052;-84
2023/09/30 06:55:33;;;;;;;13.80;8.63;;;;;;;;;;10148037;28;20039;-84
2023/09/30 07:00:27;;;;;;;10.70;7.97;;;;;;;;;;10142398;28;20056;-85
2023/09/30 07:05:21;;;;;;;16.85;7.80;;;;;;;;;;10148093;28;20562;-82
2023/09/30 07:10:16;;;;;;;13.35;7.88;;;;;;;;;;10134318;28;20152;-84
2023/09/30 07:15:11;;;;;;;12.55;8.43;;;;;;;;;;10145978;28;20053;-84
2023/09/30 07:20:09;;;;;;;11.23;8.18;;;;;;;;;;10146923;28;20068;-84
2023/09/30 07:25:05;;;;;;;14.90;8.10;;;;;;;;;;10142448;28;20064;-84
2023/09/30 07:30:00;;;;;;;15.75;9.38;;;;;;;;;;10111310;28;20067;-84
2023/09/30 07:34:55;;;;;;;14.55;10.25;;;;;;;;;;10135945;28;20076;-84
2023/09/30 07:39:50;;;;;;;11.75;10.63;;;;;;;;;;10138645;28;20127;-84
2023/09/30 07:44:44;;;;;;;13.98;10.93;;;;;;;;;;10143796;28;20048;-84
2023/09/30 07:49:38;;;;;;;15.98;11.35;;;;;;;;;;10133909;28;20049;-84
2023/09/30 07:54:33;;;;;;;16.08;10.68;;;;;;;;;;10144434;28;20097;-84
2023/09/30 07:59:28;;;;;;;15.45;13.20;;;;;;;;;;10141479;28;20407;-85
2023/09/30 08:04:21;;;;;;;13.85;11.05;;;;;;;;;;10108726;28;20114;-85
2023/09/30 08:09:18;;;;;;;18.95;11.75;;;;;;;;;;10142231;28;20052;-85
2023/09/30 08:14:12;;;;;;;13.60;11.88;;;;;;;;;;10141424;28;20076;-84
2023/09/30 08:19:06;;;;;;;20.88;13.13;;;;;;;;;;10125766;28;20133;-84
2023/09/30 08:24:00;;;;;;;16.98;12.48;;;;;;;;;;10137383;28;20052;-83
2023/09/30 08:28:55;;;;;;;18.23;12.18;;;;;;;;;;10117871;28;20052;-84
2023/09/30 08:33:49;;;;;;;13.32;8.52;;;;;;;;;;10141067;28;20503;-84
2023/09/30 08:38:44;;;;;;;10.27;9.13;;;;;;;;;;10130817;28;20127;-83
2023/09/30 08:43:41;;;;;;;14.85;9.18;;;;;;;;;;10141743;28;20044;-84
2023/09/30 08:48:35;;;;;;;13.65;8.10;;;;;;;;;;10137879;28;20415;-84
2023/09/30 08:53:30;;;;;;;9.35;7.13;;;;;;;;;;10121423;28;20044;-83
2023/09/30 08:58:27;;;;;;;10.50;6.95;;;;;;;;;;10142618;28;20049;-84
2023/09/30 09:03:21;;;;;;;13.40;7.85;;;;;;;;;;10141480;28;20198;-83
2023/09/30 09:08:16;;;;;;;10.07;7.85;;;;;;;;;;10135581;28;20056;-83
2023/09/30 09:13:11;;;;;;;13.70;7.57;;;;;;;;;;10150865;28;20064;-83
2023/09/30 09:18:05;;;;;;;15.73;7.50;;;;;;;;;;10150559;28;20479;-83
2023/09/30 09:23:00;;;;;;;9.90;7.50;;;;;;;;;;10146099;28;20412;-84
2023/09/30 09:27:54;;;;;;;9.43;7.05;;;;;;;;;;10147210;28;20070;-85
2023/09/30 09:33:02;;;;;;;7.65;6.65;;;;;;;;;;10134768;28;20591;-86
2023/09/30 09:38:00;;;;;;;;;;;;;;;;;;10122069;28;20084;-85
2023/09/30 09:42:55;;;;;;;12.23;8.38;;;;;;;;;;10148538;28;19924;-83
2023/09/30 09:47:51;;;;;;;10.82;7.20;;;;;;;;;;10143218;28;20055;-83
2023/09/30 09:52:51;;;;;;;9.38;7.90;;;;;;;;;;10130771;28;20044;-84
2023/09/30 09:57:46;;;;;;;8.68;7.53;;;;;;;;;;10131793;28;20049;-84
2023/09/30 10:02:41;;;;;;;10.48;8.93;;;;;;;;;;10149373;28;20140;-83
2023/09/30 10:07:51;;;;;;;15.15;8.88;;;;;;;;;;10150014;28;20052;-82
2023/09/30 10:12:45;;;;;;;10.80;9.02;;;;;;;;;;10131915;28;20072;-85
2023/09/30 10:18:11;;;;;;;12.23;9.38;;;;;;;;;;10149244;28;20114;-85
2023/09/30 10:23:17;;;;;;;11.20;9.68;;;;;;;;;;10148886;28;20135;-84
2023/09/30 10:28:39;;;;;;;10.38;9.38;;;;;;;;;;10149836;28;20048;-84
2023/09/30 10:33:35;;;;;;;14.77;10.18;;;;;;;;;;10149246;28;20040;-84
2023/09/30 10:38:29;;;;;;;14.55;10.38;;;;;;;;;;10134811;28;20053;-85
2023/09/30 10:43:31;;;;;;;15.43;11.43;;;;;;;;;;10147977;28;20052;-85
2023/09/30 10:48:41;;;;;;;20.45;12.00;;;;;;;;;;10117007;28;20758;-85
2023/09/30 10:54:05;;;;;;;12.65;11.20;;;;;;;;;;10145506;28;20049;-85
2023/09/30 10:59:02;;;;;;;14.90;12.48;;;;;;;;;;10132189;28;20041;-84
2023/09/30 11:04:03;;;;;;;12.73;11.43;;;;;;;;;;10122289;28;20053;-85
2023/09/30 11:08:59;;;;;;;15.82;11.82;;;;;;;;;;10120009;28;20040;-84
2023/09/30 11:13:53;;;;;;;12.77;10.07;;;;;;;;;;10123011;28;20143;-86
2023/09/30 11:18:53;;;;;;;11.35;10.20;;;;;;;;;;10114689;28;20048;-84
2023/09/30 11:23:47;;;;;;;20.58;11.73;;;;;;;;;;10120138;28;20107;-86
2023/09/30 11:28:42;;;;;;;14.65;10.98;;;;;;;;;;10109792;28;20045;-87
2023/09/30 11:33:57;;;;;;;13.80;9.65;;;;;;;;;;10111861;28;20410;-85
2023/09/30 11:38:57;;;;;;;14.10;11.23;;;;;;;;;;10109722;28;20056;-85
2023/09/30 11:44:00;;;;;;;11.07;9.88;;;;;;;;;;10127986;28;20041;-85
2023/09/30 11:49:04;;;;;;;12.57;11.27;;;;;;;;;;10133238;28;20057;-85
2023/09/30 11:54:01;;;;;;;17.48;10.45;;;;;;;;;;10121285;28;20048;-86
2023/09/30 11:58:55;;;;;;;10.13;9.10;;;;;;;;;;10126622;28;20044;-85
2023/09/30 12:03:49;;;;;;;18.95;10.55;;;;;;;;;;10117854;28;20098;-86
2023/09/30 12:08:45;;;;;;;15.98;11.00;;;;;;;;;;10124605;28;20451;-86
2023/09/30 12:13:39;;;;;;;18.38;9.45;;;;;;;;;;10113925;28;20061;-86
2023/09/30 12:18:33;;;;;;;11.70;9.20;;;;;;;;;;10125084;28;20086;-87
2023/09/30 12:23:28;;;;;;;21.45;9.77;;;;;;;;;;10120807;28;20823;-87
2023/09/30 12:28:22;;;;;;;20.48;10.63;;;;;;;;;;10118007;28;20047;-87
2023/09/30 12:33:16;;;;;;;12.35;8.38;;;;;;;;;;10113999;28;20048;-86
2023/09/30 12:38:10;;;;;;;12.77;8.00;;;;;;;;;;10115397;28;20053;-87
2023/09/30 12:43:06;;;;;;;11.50;8.55;;;;;;;;;;10107854;28;20087;-85
2023/09/30 12:48:00;;;;;;;9.75;8.75;;;;;;;;;;10108217;28;20094;-84
2023/09/30 12:52:54;;;;;;;22.08;11.10;;;;;;;;;;10103942;28;20065;-85
2023/09/30 12:57:47;;;;;;;11.57;8.93;;;;;;;;;;10107208;28;20040;-85
2023/09/30 13:02:41;;;;;;;10.93;8.95;;;;;;;;;;10111411;28;20053;-85
2023/09/30 13:07:37;;;;;;;15.60;7.60;;;;;;;;;;10106839;28;20055;-85
2023/09/30 13:12:32;;;;;;;11.43;7.63;;;;;;;;;;10105483;28;20044;-86
2023/09/30 13:17:27;;;;;;;13.82;7.28;;;;;;;;;;10108606;28;20053;-84
2023/09/30 13:22:21;;;;;;;12.48;7.68;;;;;;;;;;10109101;28;20076;-86
2023/09/30 13:27:16;;;;;;;12.32;7.57;;;;;;;;;;10110517;28;20655;-80
2023/09/30 13:32:10;;;;;;;11.05;7.45;;;;;;;;;;10118145;28;20049;-81
2023/09/30 13:37:05;;;;;;;21.55;7.55;;;;;;;;;;10126058;28;20053;-81
2023/09/30 13:41:59;;;;;;;10.82;7.28;;;;;;;;;;10120372;28;20153;-81
2023/09/30 13:46:53;;;;;;;13.45;7.95;;;;;;;;;;10120939;28;20132;-80
2023/09/30 13:51:48;;;;;;;11.82;7.47;;;;;;;;;;10144194;28;20045;-80
2023/09/30 13:56:44;;;;;;;10.27;7.22;;;;;;;;;;10140867;28;20155;-81
2023/09/30 14:01:41;;;;;;;10.82;8.68;;;;;;;;;;10121204;28;20059;-82
2023/09/30 14:06:35;;;;;;;17.55;8.50;;;;;;;;;;10113784;28;20090;-82
2023/09/30 14:11:30;;;;;;;9.95;7.07;;;;;;;;;;10123383;28;20358;-83
2023/09/30 14:16:24;;;;;;;8.38;6.47;;;;;;;;;;10127255;28;20095;-81
2023/09/30 14:21:19;;;;;;;21.10;7.45;;;;;;;;;;10138457;28;20158;-81
2023/09/30 14:26:12;;;;;;;15.02;7.72;;;;;;;;;;10145675;28;20052;-82
2023/09/30 14:31:07;;;;;;;9.52;8.30;;;;;;;;;;10126398;28;20048;-81
2023/09/30 14:36:01;;;;;;;10.60;7.57;;;;;;;;;;10119542;28;20041;-81
2023/09/30 14:40:54;;;;;;;8.55;7.15;;;;;;;;;;10101737;28;20060;-82
2023/09/30 14:45:47;;;;;;;12.10;6.60;;;;;;;;;;10127838;28;20504;-84
2023/09/30 14:50:52;;;;;;;8.65;7.20;;;;;;;;;;10140168;28;20407;-84
2023/09/30 14:55:46;;;;;;;10.38;6.88;;;;;;;;;;10136858;28;20056;-83
2023/09/30 15:00:40;;;;;;;10.30;6.05;;;;;;;;;;10132228;28;20041;-83
2023/09/30 15:05:35;;;;;;;17.50;7.28;;;;;;;;;;10123644;28;20485;-83
2023/09/30 15:10:29;;;;;;;18.60;7.30;;;;;;;;;;10112503;28;20057;-84
2023/09/30 15:15:24;;;;;;;9.02;6.07;;;;;;;;;;10108998;28;20056;-84
2023/09/30 15:20:19;;;;;;;8.27;5.07;;;;;;;;;;10111467;28;20493;-83
2023/09/30 15:25:14;;;;;;;11.85;6.75;;;;;;;;;;10109017;28;20049;-84
2023/09/30 15:30:10;;;;;;;5.32;4.60;;;;;;;;;;10110437;28;20049;-84
2023/09/30 15:35:05;;;;;;;7.10;4.93;;;;;;;;;;10122073;28;20041;-83
2023/09/30 15:40:00;;;;;;;14.20;6.05;;;;;;;;;;10117973;28;20080;-83
2023/09/30 15:44:56;;;;;;;8.43;5.10;;;;;;;;;;10110187;28;20454;-82
2023/09/30 15:49:49;;;;;;;5.80;5.20;;;;;;;;;;10108325;28;20045;-82
2023/09/30 15:54:44;;;;;;;10.18;5.13;;;;;;;;;;10108650;28;20040;-83
2023/09/30 15:59:43;;;;;;;11.80;5.95;;;;;;;;;;10112765;28;20053;-83
2023/09/30 16:04:37;;;;;;;9.77;5.43;;;;;;;;;;10112085;28;20496;-84
2023/09/30 16:09:32;;;;;;;19.00;6.80;;;;;;;;;;10109926;28;20405;-84
2023/09/30 16:14:27;;;;;;;8.95;5.40;;;;;;;;;;10107153;28;20103;-85
2023/09/30 16:19:29;;;;;;;9.77;5.40;;;;;;;;;;10107626;28;20061;-83
2023/09/30 16:24:23;;;;;;;6.57;4.78;;;;;;;;;;10108488;28;20041;-84
2023/09/30 16:29:17;;;;;;;9.77;4.95;;;;;;;;;;10106415;28;20374;-83
2023/09/30 16:34:11;;;;;;;12.50;5.20;;;;;;;;;;10107140;28;20056;-84
2023/09/30 16:39:07;;;;;;;7.70;4.65;;;;;;;;;;10107710;28;20060;-84
2023/09/30 16:44:03;;;;;;;7.15;4.95;;;;;;;;;;10107472;28;20045;-84
2023/09/30 16:48:57;;;;;;;12.45;5.60;;;;;;;;;;10107704;28;20073;-84
2023/09/30 16:53:51;;;;;;;14.07;5.55;;;;;;;;;;10106780;28;20045;-85
2023/09/30 16:58:46;;;;;;;9.10;5.30;;;;;;;;;;10116909;28;20063;-83
2023/09/30 17:03:41;;;;;;;11.00;5.35;;;;;;;;;;10106035;28;20447;-86
2023/09/30 17:08:35;;;;;;;7.13;4.95;;;;;;;;;;10107328;28;20124;-83
2023/09/30 17:13:28;;;;;;;7.18;5.47;;;;;;;;;;10106984;28;20488;-82
2023/09/30 17:18:23;;;;;;;7.65;6.95;;;;;;;;;;10108952;28;20081;-82
2023/09/30 17:23:17;;;;;;;15.50;5.18;;;;;;;;;;10104491;28;20061;-84
2023/09/30 17:28:09;;;;;;;6.55;5.53;;;;;;;;;;10114467;28;20502;-84
2023/09/30 17:33:05;;;;;;;12.32;7.30;;;;;;;;;;10113665;28;20049;-83
2023/09/30 17:38:00;;;;;;;8.52;5.82;;;;;;;;;;10118470;28;20138;-83
2023/09/30 17:42:54;;;;;;;8.88;5.97;;;;;;;;;;10097244;28;20062;-84
2023/09/30 17:47:47;;;;;;;10.45;6.07;;;;;;;;;;10114115;28;20048;-85
2023/09/30 17:52:42;;;;;;;12.13;7.15;;;;;;;;;;10125363;28;20098;-85
2023/09/30 17:57:36;;;;;;;11.35;6.30;;;;;;;;;;10112738;28;20071;-85
2023/09/30 18:02:31;;;;;;;9.30;6.35;;;;;;;;;;10112241;28;20056;-86
2023/09/30 18:07:25;;;;;;;6.35;5.75;;;;;;;;;;10111312;28;20048;-85
2023/09/30 18:12:20;;;;;;;9.80;6.15;;;;;;;;;;10111657;28;20044;-85
2023/09/30 18:17:14;;;;;;;7.03;5.60;;;;;;;;;;10111995;28;20088;-87
2023/09/30 18:22:08;;;;;;;11.07;5.93;;;;;;;;;;10111436;28;20079;-85
2023/09/30 18:27:02;;;;;;;8.23;5.03;;;;;;;;;;10123628;28;20059;-86
2023/09/30 18:31:57;;;;;;;12.45;5.95;;;;;;;;;;10110936;28;20056;-86
2023/09/30 18:36:51;;;;;;;9.40;6.47;;;;;;;;;;10111356;28;20132;-84
2023/09/30 18:41:45;;;;;;;10.13;6.03;;;;;;;;;;10119746;28;20500;-85
2023/09/30 18:46:40;;;;;;;11.35;7.30;;;;;;;;;;10126170;28;20492;-87
2023/09/30 18:51:34;;;;;;;9.63;6.18;;;;;;;;;;10110990;28;20083;-85
2023/09/30 18:56:27;;;;;;;7.32;6.32;;;;;;;;;;10109458;28;20415;-85
2023/09/30 19:01:22;;;;;;;8.65;6.35;;;;;;;;;;10110649;28;20049;-85
2023/09/30 19:06:18;;;;;;;14.23;8.60;;;;;;;;;;10110234;28;20114;-85
2023/09/30 19:11:12;;;;;;;7.80;6.38;;;;;;;;;;10108843;28;20040;-85
2023/09/30 19:16:06;;;;;;;9.85;7.63;;;;;;;;;;10110271;28;20053;-85
2023/09/30 19:21:00;;;;;;;12.32;6.47;;;;;;;;;;10096018;28;20530;-85
2023/09/30 19:25:54;;;;;;;9.88;6.75;;;;;;;;;;10113513;28;20111;-85
2023/09/30 19:30:51;;;;;;;10.45;6.68;;;;;;;;;;10108632;28;20056;-86
2023/09/30 19:35:45;;;;;;;10.43;6.32;;;;;;;;;;10109520;28;20558;-85
2023/09/30 19:40:39;;;;;;;9.13;6.38;;;;;;;;;;10117353;28;20101;-86
2023/09/30 19:45:33;;;;;;;8.50;6.00;;;;;;;;;;10143045;28;20120;-85
2023/09/30 19:50:27;;;;;;;12.25;6.57;;;;;;;;;;10143538;28;20048;-85
2023/09/30 19:55:22;;;;;;;8.63;5.70;;;;;;;;;;10144452;28;20056;-86
2023/09/30 20:00:18;;;;;;;6.82;6.13;;;;;;;;;;10143880;28;20102;-86
2023/09/30 20:05:12;;;;;;;8.75;5.70;;;;;;;;;;10145254;28;20051;-85
2023/09/30 20:10:08;;;;;;;6.07;5.32;;;;;;;;;;10142628;28;20490;-85
2023/09/30 20:15:03;;;;;;;6.03;5.28;;;;;;;;;;10143293;28;20051;-86
2023/09/30 20:19:57;;;;;;;10.05;5.90;;;;;;;;;;10143600;28;20136;-85
2023/09/30 20:24:55;;;;;;;7.88;5.13;;;;;;;;;;10142014;28;20040;-86
2023/09/30 20:29:48;;;;;;;6.45;5.30;;;;;;;;;;10138506;28;20072;-84
2023/09/30 20:34:42;;;;;;;8.15;5.95;;;;;;;;;;10144754;28;20567;-83
2023/09/30 20:39:36;;;;;;;12.30;6.72;;;;;;;;;;10143621;28;20106;-83
2023/09/30 20:44:30;;;;;;;14.40;5.57;;;;;;;;;;10143485;28;20102;-84
2023/09/30 20:49:25;;;;;;;6.65;5.80;;;;;;;;;;10143329;28;20426;-83
2023/09/30 20:54:19;;;;;;;6.72;5.50;;;;;;;;;;10143820;28;20056;-83
2023/09/30 20:59:14;;;;;;;7.65;6.43;;;;;;;;;;10144597;28;20490;-82
2023/09/30 21:04:08;;;;;;;13.07;6.28;;;;;;;;;;10142253;28;20100;-83
2023/09/30 21:09:03;;;;;;;12.15;6.03;;;;;;;;;;10133850;28;20435;-84
2023/09/30 21:13:58;;;;;;;9.32;5.80;;;;;;;;;;10140078;28;20067;-84
2023/09/30 21:18:51;;;;;;;9.82;7.45;;;;;;;;;;10142741;28;20045;-83
2023/09/30 21:23:45;;;;;;;7.20;5.43;;;;;;;;;;10119868;28;20131;-84
2023/09/30 21:28:42;;;;;;;8.45;5.53;;;;;;;;;;10151626;28;20400;-84
2023/09/30 21:33:37;;;;;;;8.13;5.43;;;;;;;;;;10149344;28;20507;-84
2023/09/30 21:38:30;;;;;;;6.55;5.53;;;;;;;;;;10150596;28;21535;-83
2023/09/30 21:43:25;;;;;;;11.93;5.82;;;;;;;;;;10118529;28;20044;-84
2023/09/30 21:48:19;;;;;;;8.52;6.53;;;;;;;;;;10132232;28;20057;-83
2023/09/30 21:53:14;;;;;;;7.40;5.45;;;;;;;;;;10143664;28;20109;-84
2023/09/30 21:58:09;;;;;;;6.03;5.38;;;;;;;;;;10147788;28;20106;-84
2023/09/30 22:03:04;;;;;;;12.63;7.30;;;;;;;;;;10147499;28;20506;-84
2023/09/30 22:07:59;;;;;;;8.52;5.97;;;;;;;;;;10122060;28;21154;-84
2023/09/30 22:12:53;;;;;;;12.85;6.05;;;;;;;;;;10104403;28;20088;-84
2023/09/30 22:17:48;;;;;;;16.65;6.97;;;;;;;;;;10119338;28;20071;-84
2023/09/30 22:22:43;;;;;;;8.02;6.22;;;;;;;;;;10141300;28;20049;-84
2023/09/30 22:27:39;;;;;;;8.50;5.85;;;;;;;;;;10129634;28;20456;-84
2023/09/30 22:32:33;;;;;;;8.00;6.22;;;;;;;;;;10110954;28;20052;-84
2023/09/30 22:37:28;;;;;;;8.45;6.50;;;;;;;;;;10110634;28;20136;-84
2023/09/30 22:42:23;;;;;;;11.30;6.07;;;;;;;;;;10111067;28;20143;-84
2023/09/30 22:47:17;;;;;;;12.75;6.25;;;;;;;;;;10111184;28;20049;-83
2023/09/30 22:52:11;;;;;;;10.63;6.82;;;;;;;;;;10109604;28;20051;-84
2023/09/30 22:57:05;;;;;;;8.95;6.95;;;;;;;;;;10111212;28;20048;-84
2023/09/30 23:01:58;;;;;;;12.65;8.15;;;;;;;;;;10110652;28;20080;-83
2023/09/30 23:06:53;;;;;;;9.55;7.10;;;;;;;;;;10110878;28;20427;-84
2023/09/30 23:11:49;;;;;;;11.48;7.25;;;;;;;;;;10108237;28;20053;-84
2023/09/30 23:16:42;;;;;;;7.65;6.63;;;;;;;;;;10110294;28;20053;-84
2023/09/30 23:21:36;;;;;;;10.27;7.18;;;;;;;;;;10109492;28;20061;-84
2023/09/30 23:26:33;;;;;;;17.00;7.15;;;;;;;;;;10111054;28;20056;-84
2023/09/30 23:31:27;;;;;;;11.90;7.03;;;;;;;;;;10109067;28;20599;-85
2023/09/30 23:36:22;;;;;;;10.30;6.25;;;;;;;;;;10109593;28;20122;-84
2023/09/30 23:41:16;;;;;;;9.70;6.68;;;;;;;;;;10111900;28;20071;-85
2023/09/30 23:46:13;;;;;;;10.07;6.30;;;;;;;;;;10114357;28;20079;-84
2023/09/30 23:51:10;;;;;;;7.93;6.78;;;;;;;;;;10107222;28;20056;-84
2023/09/30 23:56:05;;;;;;;7.65;6.93;;;;;;;;;;10108580;28;20069;-84
